sensor_id;sensor_type;location;lat;lon;timestamp;temperature;humidity
4759;DHT22;2393;50.560;12.636;2023-05-16T00:01:46;10.90;99.90
4759;DHT22;2393;50.560;12.636;2023-05-16T00:04:14;10.90;99.90
4759;DHT22;2393;50.560;12.636;2023-05-16T00:06:43;10.90;99.90
4759;DHT22;2393;50.560;12.636;2023-05-16T00:09:12;10.90;99.90
4759;DHT22;2393;50.560;12.636;2023-05-16T00:11:40;10.80;99.90
4759;DHT22;2393;50.560;12.636;2023-05-16T00:14:08;10.80;99.90
4759;DHT22;2393;50.560;12.636;2023-05-16T00:16:36;10.80;99.90
4759;DHT22;2393;50.560;12.636;2023-05-16T00:19:06;10.80;99.90
4759;DHT22;2393;50.560;12.636;2023-05-16T00:21:36;10.70;99.90
4759;DHT22;2393;50.560;12.636;2023-05-16T00:24:05;10.70;99.90
4759;DHT22;2393;50.560;12.636;2023-05-16T00:26:33;10.60;99.90
4759;DHT22;2393;50.560;12.636;2023-05-16T00:29:01;10.60;99.90
4759;DHT22;2393;50.560;12.636;2023-05-16T00:31:29;10.50;99.90
4759;DHT22;2393;50.560;12.636;2023-05-16T00:33:58;10.50;99.90
4759;DHT22;2393;50.560;12.636;2023-05-16T00:36:27;10.50;99.90
4759;DHT22;2393;50.560;12.636;2023-05-16T00:38:57;10.50;99.90
4759;DHT22;2393;50.560;12.636;2023-05-16T00:41:26;10.40;99.90
4759;DHT22;2393;50.560;12.636;2023-05-16T00:43:54;10.40;99.90
4759;DHT22;2393;50.560;12.636;2023-05-16T00:46:22;10.30;99.90
4759;DHT22;2393;50.560;12.636;2023-05-16T00:48:51;10.30;99.90
4759;DHT22;2393;50.560;12.636;2023-05-16T00:51:19;10.30;99.90
4759;DHT22;2393;50.560;12.636;2023-05-16T00:53:48;10.20;99.90
4759;DHT22;2393;50.560;12.636;2023-05-16T00:56:17;10.10;99.90
4759;DHT22;2393;50.560;12.636;2023-05-16T00:58:46;10.10;99.90
4759;DHT22;2393;50.560;12.636;2023-05-16T01:01:15;10.10;99.90
4759;DHT22;2393;50.560;12.636;2023-05-16T01:03:45;10.00;99.90
4759;DHT22;2393;50.560;12.636;2023-05-16T01:06:14;10.00;99.90
4759;DHT22;2393;50.560;12.636;2023-05-16T01:08:43;9.90;99.90
4759;DHT22;2393;50.560;12.636;2023-05-16T01:11:21;9.80;99.90
4759;DHT22;2393;50.560;12.636;2023-05-16T01:13:59;9.70;99.90
4759;DHT22;2393;50.560;12.636;2023-05-16T01:16:35;9.70;99.90
4759;DHT22;2393;50.560;12.636;2023-05-16T01:19:13;9.60;99.90
4759;DHT22;2393;50.560;12.636;2023-05-16T01:21:58;9.60;99.90
4759;DHT22;2393;50.560;12.636;2023-05-16T01:24:33;9.60;99.90
4759;DHT22;2393;50.560;12.636;2023-05-16T01:27:04;9.50;99.90
4759;DHT22;2393;50.560;12.636;2023-05-16T01:29:32;9.40;99.90
4759;DHT22;2393;50.560;12.636;2023-05-16T01:32:00;9.30;99.90
4759;DHT22;2393;50.560;12.636;2023-05-16T01:34:29;9.30;99.90
4759;DHT22;2393;50.560;12.636;2023-05-16T01:37:06;9.30;99.90
4759;DHT22;2393;50.560;12.636;2023-05-16T01:39:40;9.30;99.90
4759;DHT22;2393;50.560;12.636;2023-05-16T01:42:13;9.30;99.90
4759;DHT22;2393;50.560;12.636;2023-05-16T01:44:45;9.20;99.90
4759;DHT22;2393;50.560;12.636;2023-05-16T01:47:19;9.30;99.90
4759;DHT22;2393;50.560;12.636;2023-05-16T01:49:53;9.20;99.90
4759;DHT22;2393;50.560;12.636;2023-05-16T01:52:27;9.30;99.90
4759;DHT22;2393;50.560;12.636;2023-05-16T01:55:00;9.30;99.90
4759;DHT22;2393;50.560;12.636;2023-05-16T01:57:30;9.30;99.90
4759;DHT22;2393;50.560;12.636;2023-05-16T01:59:59;9.40;99.90
4759;DHT22;2393;50.560;12.636;2023-05-16T02:02:27;9.40;99.90
4759;DHT22;2393;50.560;12.636;2023-05-16T02:05:00;9.40;99.90
4759;DHT22;2393;50.560;12.636;2023-05-16T02:07:28;9.50;99.90
4759;DHT22;2393;50.560;12.636;2023-05-16T02:09:56;9.50;99.90
4759;DHT22;2393;50.560;12.636;2023-05-16T02:12:24;9.50;99.90
4759;DHT22;2393;50.560;12.636;2023-05-16T02:14:54;9.60;99.90
4759;DHT22;2393;50.560;12.636;2023-05-16T02:17:22;9.60;99.90
4759;DHT22;2393;50.560;12.636;2023-05-16T02:19:50;9.70;99.90
4759;DHT22;2393;50.560;12.636;2023-05-16T02:22:18;9.70;99.90
4759;DHT22;2393;50.560;12.636;2023-05-16T02:24:46;9.70;99.90
4759;DHT22;2393;50.560;12.636;2023-05-16T02:27:14;9.80;99.90
4759;DHT22;2393;50.560;12.636;2023-05-16T02:29:42;9.80;99.90
4759;DHT22;2393;50.560;12.636;2023-05-16T02:32:12;9.80;99.90
4759;DHT22;2393;50.560;12.636;2023-05-16T02:34:40;9.80;99.90
4759;DHT22;2393;50.560;12.636;2023-05-16T02:37:08;9.90;99.90
4759;DHT22;2393;50.560;12.636;2023-05-16T02:39:39;9.90;99.90
4759;DHT22;2393;50.560;12.636;2023-05-16T02:42:08;9.90;99.90
4759;DHT22;2393;50.560;12.636;2023-05-16T02:44:37;10.00;99.90
4759;DHT22;2393;50.560;12.636;2023-05-16T02:47:05;10.00;99.90
4759;DHT22;2393;50.560;12.636;2023-05-16T02:49:35;10.00;99.90
4759;DHT22;2393;50.560;12.636;2023-05-16T02:52:04;10.00;99.90
4759;DHT22;2393;50.560;12.636;2023-05-16T02:54:33;10.00;99.90
4759;DHT22;2393;50.560;12.636;2023-05-16T02:57:01;10.00;99.90
4759;DHT22;2393;50.560;12.636;2023-05-16T02:59:30;10.00;99.90
4759;DHT22;2393;50.560;12.636;2023-05-16T03:01:58;10.00;99.90
4759;DHT22;2393;50.560;12.636;2023-05-16T03:04:26;10.10;99.90
4759;DHT22;2393;50.560;12.636;2023-05-16T03:06:55;10.10;99.90
4759;DHT22;2393;50.560;12.636;2023-05-16T03:09:26;10.10;99.90
4759;DHT22;2393;50.560;12.636;2023-05-16T03:11:55;10.10;99.90
4759;DHT22;2393;50.560;12.636;2023-05-16T03:14:25;10.10;99.90
4759;DHT22;2393;50.560;12.636;2023-05-16T03:16:53;10.20;99.90
4759;DHT22;2393;50.560;12.636;2023-05-16T03:19:21;10.20;99.90
4759;DHT22;2393;50.560;12.636;2023-05-16T03:21:49;10.20;99.90
4759;DHT22;2393;50.560;12.636;2023-05-16T03:24:19;10.20;99.90
4759;DHT22;2393;50.560;12.636;2023-05-16T03:26:49;10.30;99.90
4759;DHT22;2393;50.560;12.636;2023-05-16T03:29:20;10.30;99.90
4759;DHT22;2393;50.560;12.636;2023-05-16T03:31:48;10.40;99.90
4759;DHT22;2393;50.560;12.636;2023-05-16T03:34:16;10.40;99.90
4759;DHT22;2393;50.560;12.636;2023-05-16T03:36:44;10.50;99.90
4759;DHT22;2393;50.560;12.636;2023-05-16T03:39:13;10.50;99.90
4759;DHT22;2393;50.560;12.636;2023-05-16T03:41:43;10.50;99.90
4759;DHT22;2393;50.560;12.636;2023-05-16T03:44:11;10.60;99.90
4759;DHT22;2393;50.560;12.636;2023-05-16T03:46:39;10.60;99.90
4759;DHT22;2393;50.560;12.636;2023-05-16T03:49:07;10.60;99.90
4759;DHT22;2393;50.560;12.636;2023-05-16T03:51:35;10.60;99.90
4759;DHT22;2393;50.560;12.636;2023-05-16T03:54:05;10.60;99.90
4759;DHT22;2393;50.560;12.636;2023-05-16T03:56:33;10.70;99.90
4759;DHT22;2393;50.560;12.636;2023-05-16T03:59:02;10.70;99.90
4759;DHT22;2393;50.560;12.636;2023-05-16T04:01:31;10.60;99.90
4759;DHT22;2393;50.560;12.636;2023-05-16T04:03:59;10.60;99.90
4759;DHT22;2393;50.560;12.636;2023-05-16T04:06:27;10.60;99.90
4759;DHT22;2393;50.560;12.636;2023-05-16T04:08:55;10.60;99.90
4759;DHT22;2393;50.560;12.636;2023-05-16T04:11:23;10.60;99.90
4759;DHT22;2393;50.560;12.636;2023-05-16T04:13:52;10.60;99.90
4759;DHT22;2393;50.560;12.636;2023-05-16T04:16:22;10.60;99.90
4759;DHT22;2393;50.560;12.636;2023-05-16T04:18:50;10.70;99.90
4759;DHT22;2393;50.560;12.636;2023-05-16T04:21:18;10.70;99.90
4759;DHT22;2393;50.560;12.636;2023-05-16T04:23:46;10.70;99.90
4759;DHT22;2393;50.560;12.636;2023-05-16T04:26:14;10.70;99.90
4759;DHT22;2393;50.560;12.636;2023-05-16T04:28:42;10.70;99.90
4759;DHT22;2393;50.560;12.636;2023-05-16T04:31:10;10.70;99.90
4759;DHT22;2393;50.560;12.636;2023-05-16T04:33:41;10.70;99.90
4759;DHT22;2393;50.560;12.636;2023-05-16T04:36:09;10.70;99.90
4759;DHT22;2393;50.560;12.636;2023-05-16T04:38:37;10.70;99.90
4759;DHT22;2393;50.560;12.636;2023-05-16T04:41:05;10.70;99.90
4759;DHT22;2393;50.560;12.636;2023-05-16T04:43:33;10.70;99.90
4759;DHT22;2393;50.560;12.636;2023-05-16T04:46:02;10.80;99.90
4759;DHT22;2393;50.560;12.636;2023-05-16T04:48:30;10.80;99.90
4759;DHT22;2393;50.560;12.636;2023-05-16T04:51:00;10.80;99.90
4759;DHT22;2393;50.560;12.636;2023-05-16T04:53:28;10.90;99.90
4759;DHT22;2393;50.560;12.636;2023-05-16T04:55:56;11.00;99.90
4759;DHT22;2393;50.560;12.636;2023-05-16T04:58:24;11.10;99.90
4759;DHT22;2393;50.560;12.636;2023-05-16T05:00:52;11.20;99.90
4759;DHT22;2393;50.560;12.636;2023-05-16T05:03:21;11.50;99.90
4759;DHT22;2393;50.560;12.636;2023-05-16T05:05:49;11.70;99.90
4759;DHT22;2393;50.560;12.636;2023-05-16T05:08:18;11.80;99.90
4759;DHT22;2393;50.560;12.636;2023-05-16T05:10:46;11.90;99.90
4759;DHT22;2393;50.560;12.636;2023-05-16T05:13:14;12.10;99.90
4759;DHT22;2393;50.560;12.636;2023-05-16T05:15:42;12.30;99.90
4759;DHT22;2393;50.560;12.636;2023-05-16T05:18:11;12.50;99.90
4759;DHT22;2393;50.560;12.636;2023-05-16T05:20:39;12.70;99.90
4759;DHT22;2393;50.560;12.636;2023-05-16T05:23:07;12.90;99.90
4759;DHT22;2393;50.560;12.636;2023-05-16T05:25:37;13.00;99.90
4759;DHT22;2393;50.560;12.636;2023-05-16T05:28:06;13.00;99.90
4759;DHT22;2393;50.560;12.636;2023-05-16T05:30:34;13.00;99.90
4759;DHT22;2393;50.560;12.636;2023-05-16T05:33:03;12.90;99.90
4759;DHT22;2393;50.560;12.636;2023-05-16T05:35:31;12.80;99.90
4759;DHT22;2393;50.560;12.636;2023-05-16T05:37:59;12.80;99.90
4759;DHT22;2393;50.560;12.636;2023-05-16T05:40:28;12.70;99.90
4759;DHT22;2393;50.560;12.636;2023-05-16T05:42:57;12.60;99.90
4759;DHT22;2393;50.560;12.636;2023-05-16T05:45:25;12.50;99.90
4759;DHT22;2393;50.560;12.636;2023-05-16T05:47:54;12.40;99.90
4759;DHT22;2393;50.560;12.636;2023-05-16T05:50:22;12.30;99.90
4759;DHT22;2393;50.560;12.636;2023-05-16T05:52:50;12.20;99.90
4759;DHT22;2393;50.560;12.636;2023-05-16T05:55:18;12.10;99.90
4759;DHT22;2393;50.560;12.636;2023-05-16T05:57:46;12.10;99.90
4759;DHT22;2393;50.560;12.636;2023-05-16T06:00:16;12.10;99.90
4759;DHT22;2393;50.560;12.636;2023-05-16T06:02:44;12.00;99.90
4759;DHT22;2393;50.560;12.636;2023-05-16T06:05:13;11.90;99.90
4759;DHT22;2393;50.560;12.636;2023-05-16T06:07:41;11.90;99.90
4759;DHT22;2393;50.560;12.636;2023-05-16T06:10:09;11.80;99.90
4759;DHT22;2393;50.560;12.636;2023-05-16T06:12:37;11.80;99.90
4759;DHT22;2393;50.560;12.636;2023-05-16T06:15:06;11.70;99.90
4759;DHT22;2393;50.560;12.636;2023-05-16T06:17:36;11.70;99.90
4759;DHT22;2393;50.560;12.636;2023-05-16T06:20:05;11.70;99.90
4759;DHT22;2393;50.560;12.636;2023-05-16T06:22:33;11.70;99.90
4759;DHT22;2393;50.560;12.636;2023-05-16T06:25:02;11.70;99.90
4759;DHT22;2393;50.560;12.636;2023-05-16T06:27:30;11.60;99.90
4759;DHT22;2393;50.560;12.636;2023-05-16T06:29:58;11.60;99.90
4759;DHT22;2393;50.560;12.636;2023-05-16T06:32:26;11.60;99.90
4759;DHT22;2393;50.560;12.636;2023-05-16T06:34:55;11.60;99.90
4759;DHT22;2393;50.560;12.636;2023-05-16T06:37:23;11.60;99.90
4759;DHT22;2393;50.560;12.636;2023-05-16T06:39:52;11.60;99.90
4759;DHT22;2393;50.560;12.636;2023-05-16T06:42:20;11.60;99.90
4759;DHT22;2393;50.560;12.636;2023-05-16T06:44:48;11.60;99.90
4759;DHT22;2393;50.560;12.636;2023-05-16T06:47:17;11.60;99.90
4759;DHT22;2393;50.560;12.636;2023-05-16T06:49:45;11.70;99.90
4759;DHT22;2393;50.560;12.636;2023-05-16T06:52:14;11.70;99.90
4759;DHT22;2393;50.560;12.636;2023-05-16T06:54:43;11.80;99.90
4759;DHT22;2393;50.560;12.636;2023-05-16T06:57:11;11.80;99.90
4759;DHT22;2393;50.560;12.636;2023-05-16T06:59:39;11.80;99.90
4759;DHT22;2393;50.560;12.636;2023-05-16T07:02:07;11.70;99.90
4759;DHT22;2393;50.560;12.636;2023-05-16T07:04:35;11.70;99.90
4759;DHT22;2393;50.560;12.636;2023-05-16T07:07:04;11.60;99.90
4759;DHT22;2393;50.560;12.636;2023-05-16T07:09:34;11.50;99.90
4759;DHT22;2393;50.560;12.636;2023-05-16T07:12:03;11.50;99.90
4759;DHT22;2393;50.560;12.636;2023-05-16T07:14:31;11.50;99.90
4759;DHT22;2393;50.560;12.636;2023-05-16T07:16:59;11.50;99.90
4759;DHT22;2393;50.560;12.636;2023-05-16T07:19:28;11.50;99.90
4759;DHT22;2393;50.560;12.636;2023-05-16T07:21:56;11.50;99.90
4759;DHT22;2393;50.560;12.636;2023-05-16T07:24:24;11.50;99.90
4759;DHT22;2393;50.560;12.636;2023-05-16T07:26:53;11.50;99.90
4759;DHT22;2393;50.560;12.636;2023-05-16T07:29:22;11.60;99.90
4759;DHT22;2393;50.560;12.636;2023-05-16T07:31:50;11.50;99.90
4759;DHT22;2393;50.560;12.636;2023-05-16T07:34:18;11.50;99.90
4759;DHT22;2393;50.560;12.636;2023-05-16T07:36:47;11.60;99.90
4759;DHT22;2393;50.560;12.636;2023-05-16T07:39:15;11.60;99.90
4759;DHT22;2393;50.560;12.636;2023-05-16T07:41:43;11.60;99.90
4759;DHT22;2393;50.560;12.636;2023-05-16T07:44:13;11.60;99.90
4759;DHT22;2393;50.560;12.636;2023-05-16T07:46:41;11.60;99.90
4759;DHT22;2393;50.560;12.636;2023-05-16T07:49:11;11.60;99.90
4759;DHT22;2393;50.560;12.636;2023-05-16T07:51:39;11.70;99.90
4759;DHT22;2393;50.560;12.636;2023-05-16T07:54:07;11.70;99.90
4759;DHT22;2393;50.560;12.636;2023-05-16T07:56:35;11.70;99.90
4759;DHT22;2393;50.560;12.636;2023-05-16T07:59:03;11.70;99.90
4759;DHT22;2393;50.560;12.636;2023-05-16T08:01:33;11.70;99.90
4759;DHT22;2393;50.560;12.636;2023-05-16T08:04:02;11.60;99.90
4759;DHT22;2393;50.560;12.636;2023-05-16T08:06:30;11.60;99.90
4759;DHT22;2393;50.560;12.636;2023-05-16T08:08:58;11.70;99.90
4759;DHT22;2393;50.560;12.636;2023-05-16T08:11:27;11.60;99.90
4759;DHT22;2393;50.560;12.636;2023-05-16T08:13:55;11.60;99.90
4759;DHT22;2393;50.560;12.636;2023-05-16T08:16:23;11.50;99.90
4759;DHT22;2393;50.560;12.636;2023-05-16T08:18:52;11.50;99.90
4759;DHT22;2393;50.560;12.636;2023-05-16T08:21:21;11.50;99.90
4759;DHT22;2393;50.560;12.636;2023-05-16T08:23:49;11.40;99.90
4759;DHT22;2393;50.560;12.636;2023-05-16T08:26:17;11.40;99.90
4759;DHT22;2393;50.560;12.636;2023-05-16T08:28:45;11.30;99.90
4759;DHT22;2393;50.560;12.636;2023-05-16T08:31:14;11.30;99.90
4759;DHT22;2393;50.560;12.636;2023-05-16T08:33:42;11.20;99.90
4759;DHT22;2393;50.560;12.636;2023-05-16T08:36:11;11.10;99.90
4759;DHT22;2393;50.560;12.636;2023-05-16T08:38:41;11.10;99.90
4759;DHT22;2393;50.560;12.636;2023-05-16T08:41:09;11.10;99.90
4759;DHT22;2393;50.560;12.636;2023-05-16T08:43:38;11.00;99.90
4759;DHT22;2393;50.560;12.636;2023-05-16T08:46:07;11.00;99.90
4759;DHT22;2393;50.560;12.636;2023-05-16T08:48:35;11.00;99.90
4759;DHT22;2393;50.560;12.636;2023-05-16T08:51:05;11.00;99.90
4759;DHT22;2393;50.560;12.636;2023-05-16T08:53:39;11.00;99.90
4759;DHT22;2393;50.560;12.636;2023-05-16T08:56:10;11.00;99.90
4759;DHT22;2393;50.560;12.636;2023-05-16T08:58:39;11.00;99.90
4759;DHT22;2393;50.560;12.636;2023-05-16T09:01:07;10.90;99.90
4759;DHT22;2393;50.560;12.636;2023-05-16T09:03:36;10.90;99.90
4759;DHT22;2393;50.560;12.636;2023-05-16T09:06:05;11.00;99.90
4759;DHT22;2393;50.560;12.636;2023-05-16T09:08:34;11.00;99.90
4759;DHT22;2393;50.560;12.636;2023-05-16T09:11:04;11.10;99.90
4759;DHT22;2393;50.560;12.636;2023-05-16T09:13:32;11.10;99.90
4759;DHT22;2393;50.560;12.636;2023-05-16T09:16:08;11.10;99.90
4759;DHT22;2393;50.560;12.636;2023-05-16T09:18:36;11.10;99.90
4759;DHT22;2393;50.560;12.636;2023-05-16T09:21:05;11.10;99.90
4759;DHT22;2393;50.560;12.636;2023-05-16T09:23:34;11.20;99.90
4759;DHT22;2393;50.560;12.636;2023-05-16T09:26:04;11.20;99.90
4759;DHT22;2393;50.560;12.636;2023-05-16T09:28:36;11.20;99.90
4759;DHT22;2393;50.560;12.636;2023-05-16T09:31:18;11.30;99.90
4759;DHT22;2393;50.560;12.636;2023-05-16T09:33:48;11.20;99.90
4759;DHT22;2393;50.560;12.636;2023-05-16T09:36:16;11.10;99.90
4759;DHT22;2393;50.560;12.636;2023-05-16T09:38:46;11.10;99.90
4759;DHT22;2393;50.560;12.636;2023-05-16T09:41:15;11.10;99.90
4759;DHT22;2393;50.560;12.636;2023-05-16T09:43:43;11.10;99.90
4759;DHT22;2393;50.560;12.636;2023-05-16T09:46:12;11.10;99.90
4759;DHT22;2393;50.560;12.636;2023-05-16T09:48:44;11.20;99.90
4759;DHT22;2393;50.560;12.636;2023-05-16T09:51:12;11.20;99.90
4759;DHT22;2393;50.560;12.636;2023-05-16T09:53:41;11.20;99.90
4759;DHT22;2393;50.560;12.636;2023-05-16T09:56:11;11.10;99.90
4759;DHT22;2393;50.560;12.636;2023-05-16T09:58:42;11.20;99.90
4759;DHT22;2393;50.560;12.636;2023-05-16T10:01:11;11.20;99.90
4759;DHT22;2393;50.560;12.636;2023-05-16T10:03:41;11.10;99.90
4759;DHT22;2393;50.560;12.636;2023-05-16T10:06:09;11.10;99.90
4759;DHT22;2393;50.560;12.636;2023-05-16T10:08:41;11.10;99.90
4759;DHT22;2393;50.560;12.636;2023-05-16T10:11:10;11.00;99.90
4759;DHT22;2393;50.560;12.636;2023-05-16T10:13:40;11.00;99.90
4759;DHT22;2393;50.560;12.636;2023-05-16T10:16:11;11.00;99.90
4759;DHT22;2393;50.560;12.636;2023-05-16T10:18:39;11.00;99.90
4759;DHT22;2393;50.560;12.636;2023-05-16T10:21:13;11.10;99.90
4759;DHT22;2393;50.560;12.636;2023-05-16T10:23:43;11.20;99.90
4759;DHT22;2393;50.560;12.636;2023-05-16T10:26:16;11.30;99.90
4759;DHT22;2393;50.560;12.636;2023-05-16T10:28:46;11.50;99.90
4759;DHT22;2393;50.560;12.636;2023-05-16T10:31:15;11.60;99.90
4759;DHT22;2393;50.560;12.636;2023-05-16T10:33:44;11.70;99.90
4759;DHT22;2393;50.560;12.636;2023-05-16T10:36:13;11.70;99.90
4759;DHT22;2393;50.560;12.636;2023-05-16T10:38:44;11.80;99.90
4759;DHT22;2393;50.560;12.636;2023-05-16T10:41:13;11.70;99.90
4759;DHT22;2393;50.560;12.636;2023-05-16T10:43:46;11.70;99.90
4759;DHT22;2393;50.560;12.636;2023-05-16T10:46:24;11.70;99.90
4759;DHT22;2393;50.560;12.636;2023-05-16T10:48:56;11.70;99.90
4759;DHT22;2393;50.560;12.636;2023-05-16T10:51:36;11.70;99.90
4759;DHT22;2393;50.560;12.636;2023-05-16T10:54:07;11.60;99.90
4759;DHT22;2393;50.560;12.636;2023-05-16T10:56:35;11.60;99.90
4759;DHT22;2393;50.560;12.636;2023-05-16T10:59:21;11.60;99.90
4759;DHT22;2393;50.560;12.636;2023-05-16T11:01:52;11.70;99.90
4759;DHT22;2393;50.560;12.636;2023-05-16T11:04:20;11.70;99.90
4759;DHT22;2393;50.560;12.636;2023-05-16T11:06:50;11.70;99.90
4759;DHT22;2393;50.560;12.636;2023-05-16T11:09:24;11.80;99.90
4759;DHT22;2393;50.560;12.636;2023-05-16T11:11:59;11.80;99.90
4759;DHT22;2393;50.560;12.636;2023-05-16T11:14:37;11.80;99.90
4759;DHT22;2393;50.560;12.636;2023-05-16T11:17:10;11.80;99.90
4759;DHT22;2393;50.560;12.636;2023-05-16T11:19:41;11.80;99.90
4759;DHT22;2393;50.560;12.636;2023-05-16T11:22:12;11.80;99.90
4759;DHT22;2393;50.560;12.636;2023-05-16T11:24:54;11.80;99.90
4759;DHT22;2393;50.560;12.636;2023-05-16T11:27:25;11.70;99.90
4759;DHT22;2393;50.560;12.636;2023-05-16T11:29:58;11.70;99.90
4759;DHT22;2393;50.560;12.636;2023-05-16T11:32:32;11.80;99.90
4759;DHT22;2393;50.560;12.636;2023-05-16T11:35:00;11.80;99.90
4759;DHT22;2393;50.560;12.636;2023-05-16T11:37:29;11.80;99.90
4759;DHT22;2393;50.560;12.636;2023-05-16T11:39:58;11.90;99.90
4759;DHT22;2393;50.560;12.636;2023-05-16T11:42:29;12.00;99.90
4759;DHT22;2393;50.560;12.636;2023-05-16T11:45:06;12.00;99.90
4759;DHT22;2393;50.560;12.636;2023-05-16T11:47:35;12.20;99.90
4759;DHT22;2393;50.560;12.636;2023-05-16T11:50:05;12.40;99.90
4759;DHT22;2393;50.560;12.636;2023-05-16T11:52:36;12.50;99.90
4759;DHT22;2393;50.560;12.636;2023-05-16T11:55:05;12.60;99.90
4759;DHT22;2393;50.560;12.636;2023-05-16T11:57:33;12.70;99.90
4759;DHT22;2393;50.560;12.636;2023-05-16T12:00:03;12.80;99.90
4759;DHT22;2393;50.560;12.636;2023-05-16T12:02:35;13.00;99.90
4759;DHT22;2393;50.560;12.636;2023-05-16T12:05:07;13.10;99.90
4759;DHT22;2393;50.560;12.636;2023-05-16T12:07:36;13.30;99.90
4759;DHT22;2393;50.560;12.636;2023-05-16T12:10:05;13.20;99.90
4759;DHT22;2393;50.560;12.636;2023-05-16T12:12:34;13.20;99.90
4759;DHT22;2393;50.560;12.636;2023-05-16T12:15:04;13.20;99.90
4759;DHT22;2393;50.560;12.636;2023-05-16T12:17:35;13.10;99.90
4759;DHT22;2393;50.560;12.636;2023-05-16T12:20:04;13.00;99.90
4759;DHT22;2393;50.560;12.636;2023-05-16T12:22:33;13.00;99.90
4759;DHT22;2393;50.560;12.636;2023-05-16T12:25:25;13.00;99.90
4759;DHT22;2393;50.560;12.636;2023-05-16T12:27:56;12.80;99.90
4759;DHT22;2393;50.560;12.636;2023-05-16T12:30:25;12.70;99.90
4759;DHT22;2393;50.560;12.636;2023-05-16T12:32:56;12.60;99.90
4759;DHT22;2393;50.560;12.636;2023-05-16T12:35:25;12.60;99.90
4759;DHT22;2393;50.560;12.636;2023-05-16T12:37:56;12.60;99.90
4759;DHT22;2393;50.560;12.636;2023-05-16T12:40:27;12.70;99.90
4759;DHT22;2393;50.560;12.636;2023-05-16T12:42:56;12.70;99.90
4759;DHT22;2393;50.560;12.636;2023-05-16T12:45:26;12.80;99.90
4759;DHT22;2393;50.560;12.636;2023-05-16T12:47:56;12.80;99.90
4759;DHT22;2393;50.560;12.636;2023-05-16T12:50:25;12.90;99.90
4759;DHT22;2393;50.560;12.636;2023-05-16T12:52:58;12.90;99.90
4759;DHT22;2393;50.560;12.636;2023-05-16T12:55:26;12.90;99.90
4759;DHT22;2393;50.560;12.636;2023-05-16T12:57:55;13.00;99.90
4759;DHT22;2393;50.560;12.636;2023-05-16T13:00:24;13.00;99.90
4759;DHT22;2393;50.560;12.636;2023-05-16T13:02:52;12.90;99.90
4759;DHT22;2393;50.560;12.636;2023-05-16T13:05:22;12.90;99.90
4759;DHT22;2393;50.560;12.636;2023-05-16T13:07:50;13.00;99.90
4759;DHT22;2393;50.560;12.636;2023-05-16T13:10:18;13.00;99.90
4759;DHT22;2393;50.560;12.636;2023-05-16T13:12:47;13.00;99.90
4759;DHT22;2393;50.560;12.636;2023-05-16T13:15:15;12.90;99.90
4759;DHT22;2393;50.560;12.636;2023-05-16T13:17:43;12.90;99.90
4759;DHT22;2393;50.560;12.636;2023-05-16T13:20:11;12.90;99.90
4759;DHT22;2393;50.560;12.636;2023-05-16T13:22:43;12.80;99.90
4759;DHT22;2393;50.560;12.636;2023-05-16T13:25:12;12.80;99.90
4759;DHT22;2393;50.560;12.636;2023-05-16T13:27:40;12.80;99.90
4759;DHT22;2393;50.560;12.636;2023-05-16T13:30:09;12.90;99.90
4759;DHT22;2393;50.560;12.636;2023-05-16T13:32:37;12.90;99.90
4759;DHT22;2393;50.560;12.636;2023-05-16T13:35:06;12.90;99.90
4759;DHT22;2393;50.560;12.636;2023-05-16T13:37:34;12.90;99.90
4759;DHT22;2393;50.560;12.636;2023-05-16T13:40:05;12.90;99.90
4759;DHT22;2393;50.560;12.636;2023-05-16T13:42:36;12.90;99.90
4759;DHT22;2393;50.560;12.636;2023-05-16T13:45:05;12.80;99.90
4759;DHT22;2393;50.560;12.636;2023-05-16T13:47:33;12.80;99.90
4759;DHT22;2393;50.560;12.636;2023-05-16T13:50:02;12.70;99.90
4759;DHT22;2393;50.560;12.636;2023-05-16T13:52:35;12.70;99.90
4759;DHT22;2393;50.560;12.636;2023-05-16T13:55:06;12.70;99.90
4759;DHT22;2393;50.560;12.636;2023-05-16T13:57:35;12.60;99.90
4759;DHT22;2393;50.560;12.636;2023-05-16T14:00:04;12.60;99.90
4759;DHT22;2393;50.560;12.636;2023-05-16T14:02:58;12.60;99.90
4759;DHT22;2393;50.560;12.636;2023-05-16T14:05:26;12.60;99.90
4759;DHT22;2393;50.560;12.636;2023-05-16T14:07:54;12.60;99.90
4759;DHT22;2393;50.560;12.636;2023-05-16T14:10:24;12.70;99.90
4759;DHT22;2393;50.560;12.636;2023-05-16T14:12:52;12.70;99.90
4759;DHT22;2393;50.560;12.636;2023-05-16T14:15:20;12.60;99.90
4759;DHT22;2393;50.560;12.636;2023-05-16T14:17:48;12.60;99.90
4759;DHT22;2393;50.560;12.636;2023-05-16T14:20:17;12.50;99.90
4759;DHT22;2393;50.560;12.636;2023-05-16T14:22:45;12.50;99.90
4759;DHT22;2393;50.560;12.636;2023-05-16T14:25:13;12.40;99.90
4759;DHT22;2393;50.560;12.636;2023-05-16T14:27:43;12.30;99.90
4759;DHT22;2393;50.560;12.636;2023-05-16T14:30:11;12.20;99.90
4759;DHT22;2393;50.560;12.636;2023-05-16T14:32:40;12.10;99.90
4759;DHT22;2393;50.560;12.636;2023-05-16T14:35:08;12.10;99.90
4759;DHT22;2393;50.560;12.636;2023-05-16T14:37:37;12.10;99.90
4759;DHT22;2393;50.560;12.636;2023-05-16T14:40:06;12.00;99.90
4759;DHT22;2393;50.560;12.636;2023-05-16T14:42:34;11.90;99.90
4759;DHT22;2393;50.560;12.636;2023-05-16T14:45:05;11.80;99.90
4759;DHT22;2393;50.560;12.636;2023-05-16T14:47:33;11.80;99.90
4759;DHT22;2393;50.560;12.636;2023-05-16T14:50:02;11.80;99.90
4759;DHT22;2393;50.560;12.636;2023-05-16T14:52:30;11.80;99.90
4759;DHT22;2393;50.560;12.636;2023-05-16T14:54:58;11.80;99.90
4759;DHT22;2393;50.560;12.636;2023-05-16T14:57:26;11.90;99.90
4759;DHT22;2393;50.560;12.636;2023-05-16T14:59:55;11.90;99.90
4759;DHT22;2393;50.560;12.636;2023-05-16T15:02:25;11.90;99.90
4759;DHT22;2393;50.560;12.636;2023-05-16T15:04:54;11.90;99.90
4759;DHT22;2393;50.560;12.636;2023-05-16T15:07:23;11.90;99.90
4759;DHT22;2393;50.560;12.636;2023-05-16T15:09:51;11.80;99.90
4759;DHT22;2393;50.560;12.636;2023-05-16T15:12:19;11.80;99.90
4759;DHT22;2393;50.560;12.636;2023-05-16T15:14:47;11.70;99.90
4759;DHT22;2393;50.560;12.636;2023-05-16T15:17:15;11.60;99.90
4759;DHT22;2393;50.560;12.636;2023-05-16T15:19:44;11.50;99.90
4759;DHT22;2393;50.560;12.636;2023-05-16T15:22:13;11.40;99.90
4759;DHT22;2393;50.560;12.636;2023-05-16T15:24:41;11.40;99.90
4759;DHT22;2393;50.560;12.636;2023-05-16T15:27:10;11.30;99.90
4759;DHT22;2393;50.560;12.636;2023-05-16T15:29:38;11.30;99.90
4759;DHT22;2393;50.560;12.636;2023-05-16T15:32:06;11.30;99.90
4759;DHT22;2393;50.560;12.636;2023-05-16T15:34:35;11.30;99.90
4759;DHT22;2393;50.560;12.636;2023-05-16T15:37:05;11.30;99.90
4759;DHT22;2393;50.560;12.636;2023-05-16T15:39:33;11.30;99.90
4759;DHT22;2393;50.560;12.636;2023-05-16T15:42:01;11.30;99.90
4759;DHT22;2393;50.560;12.636;2023-05-16T15:44:37;11.40;99.90
4759;DHT22;2393;50.560;12.636;2023-05-16T15:47:06;11.40;99.90
4759;DHT22;2393;50.560;12.636;2023-05-16T15:49:34;11.40;99.90
4759;DHT22;2393;50.560;12.636;2023-05-16T15:52:02;11.40;99.90
4759;DHT22;2393;50.560;12.636;2023-05-16T15:54:32;11.50;99.90
4759;DHT22;2393;50.560;12.636;2023-05-16T15:57:00;11.50;99.90
4759;DHT22;2393;50.560;12.636;2023-05-16T15:59:28;11.60;99.90
4759;DHT22;2393;50.560;12.636;2023-05-16T16:01:56;11.70;99.90